Time;durP1;ratioP1;P1;durP2;ratioP2;P2;SDS_P1;SDS_P2;PMS_P1;PMS_P2;Temp;Humidity;BMP_temperature;BMP_pressure;BME280_temperature;BME280_humidity;BME280_pressure;Samples;Min_cycle;Max_cycle;Signal;HPM_P1;HPM_P2
2024/03/25 00:00:31;;;;;;;20.58;6.03;;;;;;;4.88;100.00;100759.38;10471070;28;20096;-73
2024/03/25 00:05:32;;;;;;;44.88;6.65;;;;;;;4.81;100.00;100750.28;10454163;28;20056;-74
2024/03/25 00:10:32;;;;;;;15.77;5.70;;;;;;;4.70;100.00;100746.09;10455138;28;20037;-74
2024/03/25 00:15:34;;;;;;;15.68;5.97;;;;;;;4.62;100.00;100746.88;10453985;28;20036;-74
2024/03/25 00:20:34;;;;;;;14.75;5.45;;;;;;;4.61;100.00;100750.56;10455755;28;20041;-73
2024/03/25 00:25:34;;;;;;;31.50;6.38;;;;;;;4.78;100.00;100751.47;10454375;28;20052;-74
2024/03/25 00:30:35;;;;;;;18.23;5.18;;;;;;;4.97;100.00;100749.50;10437118;28;20033;-73
2024/03/25 00:35:35;;;;;;;21.98;5.72;;;;;;;4.99;100.00;100747.50;10455361;28;20044;-74
2024/03/25 00:40:36;;;;;;;18.23;5.00;;;;;;;4.86;100.00;100761.38;10459134;28;20044;-74
2024/03/25 00:45:36;;;;;;;26.55;6.13;;;;;;;4.74;100.00;100757.31;10463008;28;20338;-74
2024/03/25 00:50:37;;;;;;;8.93;5.70;;;;;;;4.64;100.00;100755.63;10462757;28;20048;-74
2024/03/25 00:55:37;;;;;;;21.55;6.68;;;;;;;4.51;100.00;100747.19;10461960;28;20477;-74
2024/03/25 01:00:38;;;;;;;13.65;4.13;;;;;;;4.41;100.00;100760.72;10462480;28;20124;-74
2024/03/25 01:05:38;;;;;;;21.13;5.85;;;;;;;4.39;100.00;100767.25;10463805;28;20029;-74
2024/03/25 01:10:38;;;;;;;16.95;4.80;;;;;;;4.33;100.00;100768.72;10462291;28;20136;-74
2024/03/25 01:15:39;;;;;;;15.35;5.85;;;;;;;4.36;100.00;100776.44;10462410;28;20051;-74
2024/03/25 01:20:39;;;;;;;25.10;7.25;;;;;;;4.59;100.00;100775.88;10461281;28;20245;-74
2024/03/25 01:25:39;;;;;;;29.23;7.50;;;;;;;4.69;100.00;100765.88;10464107;28;20028;-74
2024/03/25 01:30:40;;;;;;;13.60;5.20;;;;;;;4.65;100.00;100767.19;10460961;28;20353;-74
2024/03/25 01:35:40;;;;;;;16.65;4.93;;;;;;;4.59;100.00;100765.97;10461808;28;20109;-74
2024/03/25 01:52:34;;;;;;;30.50;6.63;;;;;;;5.17;100.00;100758.06;10459623;28;20477;-74
2024/03/25 01:57:35;;;;;;;34.83;8.52;;;;;;;5.18;100.00;100760.63;10460319;28;20021;-74
2024/03/25 02:02:37;;;;;;;25.08;6.05;;;;;;;5.25;100.00;100761.63;10459740;28;20021;-74
2024/03/25 02:07:38;;;;;;;21.08;6.25;;;;;;;5.34;100.00;100757.94;10458271;28;20032;-74
2024/03/25 02:12:39;;;;;;;27.63;5.95;;;;;;;5.24;100.00;100753.75;10459229;28;20087;-73
2024/03/25 02:17:39;;;;;;;29.95;6.68;;;;;;;5.14;100.00;100751.22;10459437;28;20065;-73
2024/03/25 02:22:39;;;;;;;20.83;6.28;;;;;;;5.01;100.00;100732.06;10442512;28;20047;-73
2024/03/25 02:27:40;;;;;;;28.17;6.63;;;;;;;4.83;100.00;100733.03;10457924;28;20114;-74
2024/03/25 02:32:40;;;;;;;26.10;5.97;;;;;;;4.66;100.00;100728.66;10459167;28;20036;-73
2024/03/25 02:37:41;;;;;;;25.10;7.45;;;;;;;4.48;100.00;100720.69;10458585;28;20030;-74
2024/03/25 02:42:41;;;;;;;17.77;5.38;;;;;;;4.33;100.00;100725.00;10439993;28;20111;-74
2024/03/25 02:47:41;;;;;;;21.65;6.53;;;;;;;4.18;100.00;100720.25;10458074;28;20029;-73
2024/03/25 02:52:42;;;;;;;21.85;6.40;;;;;;;4.04;100.00;100718.16;10458513;28;20033;-73
2024/03/25 02:57:42;;;;;;;17.65;5.03;;;;;;;3.84;100.00;100712.19;10457165;28;20364;-74
2024/03/25 03:02:43;;;;;;;20.73;6.18;;;;;;;3.70;100.00;100712.75;10424262;28;20037;-74
2024/03/25 03:07:43;;;;;;;28.20;6.30;;;;;;;3.69;100.00;100705.72;10458287;28;20032;-73
2024/03/25 03:12:44;;;;;;;14.85;5.25;;;;;;;3.62;100.00;100704.69;10459715;28;20514;-73
2024/03/25 03:17:44;;;;;;;17.27;4.35;;;;;;;3.56;100.00;100703.47;10459066;28;20036;-74
2024/03/25 03:22:45;;;;;;;20.38;5.22;;;;;;;3.55;100.00;100698.28;10458271;28;20036;-74
2024/03/25 03:27:45;;;;;;;21.67;5.85;;;;;;;3.52;100.00;100703.97;10457733;28;20028;-73
2024/03/25 03:32:46;;;;;;;20.73;7.28;;;;;;;3.42;100.00;100693.34;10457258;28;20029;-73
2024/03/25 03:37:46;;;;;;;17.05;5.65;;;;;;;3.42;100.00;100693.34;10471657;28;20028;-74
2024/03/25 03:42:47;;;;;;;19.70;6.13;;;;;;;3.33;100.00;100697.78;10456252;28;20081;-73
2024/03/25 03:47:47;;;;;;;14.35;5.88;;;;;;;3.23;100.00;100692.53;10456528;28;20108;-74
2024/03/25 03:52:47;;;;;;;17.20;6.50;;;;;;;3.20;100.00;100692.00;10455428;28;20037;-74
2024/03/25 03:57:48;;;;;;;12.73;5.43;;;;;;;3.12;100.00;100690.09;10453953;28;20029;-74
2024/03/25 04:02:48;;;;;;;8.90;5.30;;;;;;;3.14;100.00;100681.91;10454815;28;20025;-73
2024/03/25 04:07:49;;;;;;;26.27;5.30;;;;;;;3.23;100.00;100684.50;10455211;28;20095;-74
2024/03/25 04:12:49;;;;;;;20.05;6.65;;;;;;;3.19;100.00;100691.16;10454357;28;20072;-74
2024/03/25 04:17:50;;;;;;;13.32;6.20;;;;;;;3.18;100.00;100680.59;10453449;28;20326;-74
2024/03/25 04:22:50;;;;;;;14.43;5.22;;;;;;;3.19;100.00;100680.47;10453371;28;20080;-74
2024/03/25 04:27:51;;;;;;;17.80;3.97;;;;;;;3.15;100.00;100676.41;10437802;28;20033;-74
2024/03/25 04:32:51;;;;;;;15.38;5.38;;;;;;;3.13;100.00;100672.22;10453208;28;20029;-74
2024/03/25 04:37:51;;;;;;;20.58;5.10;;;;;;;3.11;100.00;100679.56;10454855;28;20021;-73
2024/03/25 04:42:52;;;;;;;19.40;4.65;;;;;;;3.10;100.00;100675.22;10454914;28;20029;-74
2024/03/25 04:47:52;;;;;;;24.70;5.95;;;;;;;3.07;100.00;100680.88;10454048;28;20445;-74
2024/03/25 04:52:52;;;;;;;19.70;6.47;;;;;;;3.18;100.00;100684.13;10455063;28;20032;-74
2024/03/25 04:57:53;;;;;;;19.23;6.00;;;;;;;3.15;100.00;100688.94;10453785;28;20037;-74
2024/03/25 05:02:53;;;;;;;9.20;5.32;;;;;;;3.00;100.00;100688.66;10453134;28;20117;-74
2024/03/25 05:07:54;;;;;;;26.50;8.13;;;;;;;2.96;100.00;100688.09;10454236;28;20037;-74
2024/03/25 05:12:55;;;;;;;9.35;5.65;;;;;;;3.08;100.00;100690.56;10454529;28;20056;-74
2024/03/25 05:17:55;;;;;;;22.75;6.45;;;;;;;3.18;100.00;100678.75;10453262;28;20041;-74
2024/03/25 05:22:56;;;;;;;16.80;5.68;;;;;;;3.22;100.00;100684.63;10453406;28;20037;-74
2024/03/25 05:27:56;;;;;;;26.67;7.80;;;;;;;3.17;100.00;100674.41;10474384;28;20094;-71
2024/03/25 05:32:57;;;;;;;28.85;6.78;;;;;;;3.16;100.00;100669.19;10459986;28;20389;-71
2024/03/25 05:37:57;;;;;;;36.60;6.45;;;;;;;3.14;100.00;100671.22;10462741;28;20030;-74
2024/03/25 05:42:57;;;;;;;41.53;9.20;;;;;;;3.17;100.00;100661.03;10462257;28;20041;-75
2024/03/25 05:47:58;;;;;;;22.50;7.07;;;;;;;3.13;100.00;100666.88;10460203;28;20528;-74
2024/03/25 05:52:58;;;;;;;28.67;7.38;;;;;;;3.25;100.00;100665.59;10461662;28;20029;-75
2024/03/25 05:57:58;;;;;;;22.15;9.00;;;;;;;3.39;100.00;100658.88;10461532;28;20025;-69
2024/03/25 06:02:59;;;;;;;14.80;5.63;;;;;;;3.45;100.00;100653.72;10459630;28;20033;-73
2024/03/25 06:07:59;;;;;;;12.40;7.03;;;;;;;3.57;100.00;100658.78;10477048;28;20120;-74
2024/03/25 06:13:00;;;;;;;13.20;6.60;;;;;;;3.78;100.00;100653.91;10460561;28;20373;-73
2024/03/25 06:18:00;;;;;;;22.75;8.50;;;;;;;4.47;100.00;100637.72;10459459;28;20044;-73
2024/03/25 06:23:01;;;;;;;19.73;7.57;;;;;;;5.54;100.00;100637.56;10442507;28;20044;-73
2024/03/25 06:28:02;;;;;;;20.90;7.70;;;;;;;6.51;100.00;100632.03;10458821;28;20029;-74
2024/03/25 06:38:21;;;;;;;40.83;11.90;;;;;;;7.77;100.00;100634.09;10460656;28;20040;-74
2024/03/25 06:43:21;;;;;;;35.95;13.25;;;;;;;8.38;100.00;100632.03;10459048;28;20037;-74
2024/03/25 06:48:22;;;;;;;28.08;12.38;;;;;;;9.16;100.00;100636.78;10459050;28;20029;-73
2024/03/25 06:53:22;;;;;;;35.97;15.02;;;;;;;9.86;100.00;100633.13;10457046;28;20364;-74
2024/03/25 06:58:23;;;;;;;24.77;15.75;;;;;;;10.50;100.00;100625.69;10457732;28;20025;-73
2024/03/25 07:03:24;;;;;;;35.30;15.20;;;;;;;10.86;100.00;100618.06;10473847;28;20449;-74
2024/03/25 07:08:24;;;;;;;38.15;15.35;;;;;;;11.34;100.00;100620.59;10457360;28;20045;-74
2024/03/25 07:13:25;;;;;;;14.38;10.90;;;;;;;10.99;100.00;100621.84;10457769;28;20479;-73
2024/03/25 07:18:25;;;;;;;21.63;12.77;;;;;;;11.22;100.00;100616.84;10456898;28;20048;-74
2024/03/25 07:23:25;;;;;;;22.75;11.98;;;;;;;12.22;100.00;100620.22;10455549;28;20124;-73
2024/03/25 07:28:26;;;;;;;17.58;9.63;;;;;;;12.60;100.00;100624.81;10455679;28;20032;-74
2024/03/25 07:33:26;;;;;;;15.80;8.10;;;;;;;12.67;100.00;100630.25;10457533;28;20028;-74
2024/03/25 07:38:27;;;;;;;20.05;9.93;;;;;;;12.85;100.00;100632.22;10457437;28;20082;-73
2024/03/25 07:43:27;;;;;;;16.45;8.50;;;;;;;13.47;100.00;100630.53;10456758;28;20029;-74
2024/03/25 07:48:27;;;;;;;10.38;7.22;;;;;;;13.34;100.00;100636.09;10454700;28;20425;-74
2024/03/25 07:53:28;;;;;;;12.45;8.05;;;;;;;13.57;100.00;100638.16;10456703;28;20037;-74
2024/03/25 07:58:28;;;;;;;19.67;9.93;;;;;;;14.20;100.00;100651.53;10454921;28;20025;-74
2024/03/25 08:03:29;;;;;;;17.23;9.38;;;;;;;13.89;100.00;100644.34;10456553;28;20126;-74
2024/03/25 08:08:29;;;;;;;15.40;7.10;;;;;;;14.13;100.00;100646.13;10454440;28;20037;-74
2024/03/25 08:13:29;;;;;;;15.90;7.97;;;;;;;13.81;100.00;100637.28;10456627;28;20067;-74
2024/03/25 08:18:30;;;;;;;19.33;7.78;;;;;;;13.98;100.00;100648.44;10456887;28;20437;-74
2024/03/25 08:23:30;;;;;;;18.58;7.38;;;;;;;14.65;100.00;100646.59;10457140;28;20041;-74
2024/03/25 08:28:31;;;;;;;9.68;5.78;;;;;;;15.55;100.00;100636.59;10455295;28;20033;-74
2024/03/25 08:33:31;;;;;;;8.43;7.63;;;;;;;16.08;100.00;100634.78;10455960;28;20353;-74
2024/03/25 08:38:31;;;;;;;8.25;6.57;;;;;;;16.13;100.00;100621.25;10456147;28;20029;-74
2024/03/25 08:43:32;;;;;;;11.90;6.13;;;;;;;16.11;100.00;100626.09;10455342;28;20372;-74
2024/03/25 08:48:32;;;;;;;6.57;5.07;;;;;;;16.55;100.00;100619.09;10455268;28;20423;-73
2024/03/25 08:53:32;;;;;;;10.15;6.20;;;;;;;16.64;100.00;100614.88;10453971;28;20032;-74
2024/03/25 08:58:33;;;;;;;10.13;8.43;;;;;;;16.35;100.00;100611.31;10437243;28;20028;-74
2024/03/25 09:03:33;;;;;;;8.77;6.85;;;;;;;16.36;100.00;100604.78;10463450;28;20032;-74
2024/03/25 09:11:02;;;;;;;8.60;7.60;;;;;;;16.55;100.00;100608.16;10460942;28;20029;-74
2024/03/25 09:13:54;;;;;;;10.32;7.95;;;;;;;15.71;100.00;100610.50;10461844;28;20068;-74
2024/03/25 09:18:54;;;;;;;15.77;9.45;;;;;;;15.08;100.00;100601.06;10462101;28;20036;-74
2024/03/25 09:23:56;;;;;;;19.25;10.68;;;;;;;15.79;100.00;100600.06;10461339;28;20381;-74
2024/03/25 09:28:57;;;;;;;20.17;12.00;;;;;;;16.41;100.00;100593.94;10461386;28;20037;-74
2024/03/25 09:33:57;;;;;;;13.93;11.32;;;;;;;16.45;100.00;100592.38;10461300;28;20453;-74
2024/03/25 09:38:57;;;;;;;10.43;9.23;;;;;;;15.80;100.00;100584.50;10461959;28;20067;-74
2024/03/25 09:43:59;;;;;;;11.85;8.85;;;;;;;14.62;100.00;100581.63;10458899;28;20036;-73
2024/03/25 09:49:00;;;;;;;10.65;9.45;;;;;;;13.94;100.00;100584.59;10442982;28;20024;-74
2024/03/25 09:54:00;;;;;;;21.45;9.65;;;;;;;13.33;100.00;100588.16;10459245;28;20028;-73
2024/03/25 09:59:01;;;;;;;15.85;9.93;;;;;;;13.58;100.00;100582.69;10460057;28;20079;-73
2024/03/25 10:04:02;;;;;;;19.42;10.30;;;;;;;13.86;100.00;100574.03;10460980;28;20110;-74
2024/03/25 10:09:08;;;;;;;19.05;10.98;;;;;;;14.60;100.00;100570.13;10460905;28;20025;-74
2024/03/25 10:14:09;;;;;;;15.75;9.85;;;;;;;15.71;100.00;100562.19;10473980;28;20052;-74
2024/03/25 10:19:09;;;;;;;16.13;9.98;;;;;;;16.11;100.00;100561.38;10459405;28;20055;-74
2024/03/25 10:24:10;;;;;;;10.98;8.65;;;;;;;16.49;100.00;100558.00;10459673;28;20453;-74
2024/03/25 10:29:11;;;;;;;24.55;10.00;;;;;;;17.13;100.00;100555.06;10459793;28;20040;-74
2024/03/25 10:34:11;;;;;;;14.15;8.48;;;;;;;16.77;100.00;100547.34;10460096;28;20464;-74
2024/03/25 10:39:12;;;;;;;15.43;8.73;;;;;;;16.98;100.00;100540.31;10459418;28;20029;-74
2024/03/25 10:44:12;;;;;;;17.70;7.88;;;;;;;16.26;100.00;100541.72;10459095;28;20547;-74
2024/03/25 10:49:27;;;;;;;26.02;6.05;;;;;;;16.64;100.00;100530.13;10458369;28;20117;-74
2024/03/25 10:54:29;;;;;;;12.23;7.03;;;;;;;16.77;100.00;100534.50;10457846;28;20031;-74
2024/03/25 10:59:30;;;;;;;9.70;7.30;;;;;;;16.23;100.00;100523.91;10440050;28;20035;-75
2024/03/25 11:04:30;;;;;;;8.85;7.05;;;;;;;16.68;100.00;100512.16;10441028;28;20433;-74
2024/03/25 11:09:31;;;;;;;11.45;7.05;;;;;;;16.88;100.00;100511.72;10440175;28;20032;-74
2024/03/25 11:14:35;;;;;;;13.80;7.38;;;;;;;17.05;100.00;100498.03;10457587;28;20056;-74
2024/03/25 11:19:35;;;;;;;7.00;5.55;;;;;;;17.46;100.00;100490.41;10456859;28;20041;-74
2024/03/25 11:24:39;;;;;;;5.20;4.70;;;;;;;17.00;100.00;100478.78;10457408;28;20036;-74
2024/03/25 11:29:40;;;;;;;5.65;5.07;;;;;;;16.68;100.00;100464.84;10455614;28;20017;-75
2024/03/25 11:34:49;;;;;;;6.82;4.07;;;;;;;16.77;100.00;100476.25;10455828;28;20159;-75
2024/03/25 11:40:00;;;;;;;6.70;4.85;;;;;;;16.62;100.00;100455.72;10455024;28;20048;-74
2024/03/25 11:45:01;;;;;;;6.75;5.65;;;;;;;16.77;100.00;100451.63;10439257;28;20094;-74
2024/03/25 11:50:07;;;;;;;11.18;6.32;;;;;;;16.96;100.00;100453.84;10438224;28;20098;-74
2024/03/25 11:55:08;;;;;;;5.28;4.85;;;;;;;17.11;100.00;100445.03;10454737;28;20025;-74
2024/03/25 12:00:14;;;;;;;12.55;5.25;;;;;;;17.46;100.00;100454.00;10456153;28;20025;-74
2024/03/25 12:05:14;;;;;;;7.40;4.00;;;;;;;17.87;100.00;100458.09;10455171;28;20416;-74
2024/03/25 12:15:33;;;;;;;13.45;6.97;;;;;;;17.85;100.00;100436.41;10454754;28;20116;-74
2024/03/25 12:20:34;;;;;;;12.70;7.05;;;;;;;17.41;100.00;100425.47;10455648;28;20420;-74
2024/03/25 12:25:34;;;;;;;10.77;7.05;;;;;;;16.84;100.00;100409.34;10471042;28;20040;-74
2024/03/25 12:30:56;;;;;;;10.30;7.47;;;;;;;17.23;100.00;100405.78;10456064;28;20445;-74
2024/03/25 12:35:57;;;;;;;8.32;6.38;;;;;;;17.32;100.00;100402.34;10459302;28;20025;-74
2024/03/25 12:41:10;;;;;;;7.88;6.60;;;;;;;17.55;100.00;100394.94;10463779;28;20033;-74
2024/03/25 12:46:11;;;;;;;9.68;7.38;;;;;;;17.78;100.00;100374.72;10462535;28;20460;-74
2024/03/25 12:51:13;;;;;;;9.73;5.93;;;;;;;17.35;100.00;100377.22;10463747;28;20037;-75
2024/03/25 12:56:14;;;;;;;5.68;4.95;;;;;;;16.57;100.00;100373.66;10460673;28;20025;-74
2024/03/25 13:01:14;;;;;;;8.30;5.50;;;;;;;15.24;100.00;100362.22;10461734;28;20116;-74
2024/03/25 13:06:15;;;;;;;12.55;5.00;;;;;;;14.35;100.00;100355.03;10462391;28;20036;-74
2024/03/25 13:11:15;;;;;;;12.20;5.35;;;;;;;13.66;100.00;100342.97;10462201;28;20041;-74
2024/03/25 13:16:16;;;;;;;5.20;4.75;;;;;;;13.37;100.00;100331.00;10462169;28;20063;-74
2024/03/25 13:21:16;;;;;;;3.22;3.00;;;;;;;15.37;100.00;100328.38;10461585;28;20036;-74
2024/03/25 13:26:16;;;;;;;7.55;5.05;;;;;;;14.21;100.00;100325.56;10461848;28;20120;-74
2024/03/25 13:31:17;;;;;;;6.80;4.60;;;;;;;13.51;100.00;100310.75;10460788;28;20455;-74
2024/03/25 13:36:18;;;;;;;9.30;4.90;;;;;;;14.81;100.00;100298.09;10460276;28;20102;-74
2024/03/25 13:41:21;;;;;;;9.65;4.70;;;;;;;13.77;100.00;100285.03;10459534;28;20029;-74
2024/03/25 13:46:22;;;;;;;10.05;3.97;;;;;;;13.70;100.00;100273.41;10458883;28;20543;-74
2024/03/25 13:51:22;;;;;;;4.97;3.78;;;;;;;13.43;100.00;100270.25;10461357;28;20061;-74
2024/03/25 13:56:22;;;;;;;7.43;4.90;;;;;;;13.19;100.00;100264.72;10461092;28;20355;-74
2024/03/25 14:01:24;;;;;;;9.35;3.90;;;;;;;13.19;100.00;100264.72;10460025;28;20032;-73
2024/03/25 14:06:25;;;;;;;13.20;4.03;;;;;;;13.18;100.00;100254.06;10459756;28;20033;-74
2024/03/25 14:11:26;;;;;;;4.05;3.60;;;;;;;12.92;100.00;100228.06;10459828;28;20048;-74
2024/03/25 14:16:27;;;;;;;7.40;4.45;;;;;;;12.46;100.00;100227.59;10459270;28;20032;-73
2024/03/25 14:21:27;;;;;;;10.23;3.45;;;;;;;12.28;100.00;100222.13;10459580;28;20074;-74
2024/03/25 14:26:28;;;;;;;4.15;3.78;;;;;;;12.01;100.00;100213.47;10458933;28;20354;-73
2024/03/25 14:31:29;;;;;;;3.75;3.20;;;;;;;12.98;100.00;100197.25;10458684;28;20059;-73
2024/03/25 14:36:29;;;;;;;4.07;3.67;;;;;;;14.18;100.00;100196.97;10459360;28;20064;-74
2024/03/25 14:41:37;;;;;;;3.95;3.00;;;;;;;14.67;100.00;100179.50;10459282;28;20033;-73
2024/03/25 14:46:38;;;;;;;17.00;3.28;;;;;;;14.42;100.00;100176.00;10457293;28;20032;-74
2024/03/25 14:51:38;;;;;;;5.18;4.18;;;;;;;13.47;100.00;100171.66;10457700;28;20036;-74
2024/03/25 14:56:39;;;;;;;7.55;3.50;;;;;;;13.12;100.00;100165.28;10456404;28;20033;-74
2024/03/25 15:01:39;;;;;;;3.22;2.90;;;;;;;12.96;100.00;100164.06;10458284;28;20044;-74
2024/03/25 15:06:39;;;;;;;4.10;3.75;;;;;;;13.58;100.00;100150.97;10457425;28;20128;-73
2024/03/25 15:11:40;;;;;;;3.88;3.53;;;;;;;13.47;100.00;100146.34;10456011;28;20041;-73
2024/03/25 15:16:40;;;;;;;8.73;3.95;;;;;;;13.09;84.84;100142.13;10457159;28;20025;-73
2024/03/25 15:21:41;;;;;;;4.97;3.83;;;;;;;12.50;94.54;100131.00;10455682;28;20032;-73
2024/03/25 15:26:41;;;;;;;3.13;2.83;;;;;;;12.40;100.00;100116.34;10455989;28;20040;-73
2024/03/25 15:31:41;;;;;;;6.30;3.22;;;;;;;12.09;100.00;100112.72;10455948;28;20556;-73
2024/03/25 15:36:42;;;;;;;6.75;3.42;;;;;;;11.77;97.86;100109.31;10456784;28;20029;-73
2024/03/25 15:41:42;;;;;;;5.03;3.17;;;;;;;11.69;100.00;100096.06;10437638;28;20025;-73
2024/03/25 15:46:43;;;;;;;10.40;3.95;;;;;;;11.82;100.00;100102.16;10455092;28;20079;-73
2024/03/25 15:51:43;;;;;;;3.25;2.97;;;;;;;11.82;92.07;100087.78;10457322;28;20037;-74
2024/03/25 15:56:43;;;;;;;4.53;2.95;;;;;;;11.80;100.00;100085.25;10456222;28;20032;-73
2024/03/25 16:01:44;;;;;;;3.15;2.38;;;;;;;11.54;82.38;100077.41;10455633;28;20040;-73
2024/03/25 16:06:44;;;;;;;5.18;2.78;;;;;;;11.55;83.35;100073.66;10455710;28;20036;-73
2024/03/25 16:11:45;;;;;;;3.88;2.80;;;;;;;11.51;87.47;100046.16;10453240;28;20505;-73
2024/03/25 16:16:45;;;;;;;3.95;3.67;;;;;;;11.29;85.62;100051.16;10455665;28;20028;-73
2024/03/25 16:21:46;;;;;;;7.95;2.95;;;;;;;11.18;90.74;100049.19;10454056;28;20103;-73
2024/03/25 16:26:46;;;;;;;3.03;2.78;;;;;;;11.16;91.93;100057.53;10454929;28;20029;-73
2024/03/25 16:31:46;;;;;;;7.10;3.50;;;;;;;10.94;90.32;100048.13;10470553;28;20479;-73
2024/03/25 16:36:47;;;;;;;7.75;3.00;;;;;;;11.03;94.23;100033.28;10454855;28;20106;-73
2024/03/25 16:41:47;;;;;;;3.47;2.92;;;;;;;10.99;95.82;100037.47;10454794;28;20116;-73
2024/03/25 16:46:48;;;;;;;3.97;3.13;;;;;;;10.72;86.55;100026.03;10455026;28;20417;-73
2024/03/25 16:51:48;;;;;;;6.75;3.65;;;;;;;10.62;85.30;100015.69;10453124;28;20035;-73
2024/03/25 16:56:48;;;;;;;5.00;3.70;;;;;;;10.48;86.00;100030.38;10454617;28;20372;-73
2024/03/25 17:01:49;;;;;;;4.90;3.05;;;;;;;10.37;89.78;100021.06;10453727;28;20044;-73
2024/03/25 17:06:49;;;;;;;6.60;3.03;;;;;;;10.33;81.56;100014.41;10454543;28;20104;-73
2024/03/25 17:11:52;;;;;;;3.28;2.58;;;;;;;10.27;86.34;100007.16;10453964;28;20457;-73
2024/03/25 17:16:52;;;;;;;16.17;3.88;;;;;;;10.14;89.89;100002.63;10421038;28;20060;-73
2024/03/25 17:21:53;;;;;;;4.47;3.03;;;;;;;10.09;92.81;100010.59;10458572;28;20033;-73
2024/03/25 17:26:53;;;;;;;7.45;4.60;;;;;;;10.07;92.25;100014.53;10462821;28;20136;-73
2024/03/25 17:31:53;;;;;;;10.70;3.88;;;;;;;9.98;95.18;100013.94;10460541;28;20025;-73
2024/03/25 17:36:54;;;;;;;15.77;3.80;;;;;;;9.81;89.44;100010.91;10476174;28;20036;-73
2024/03/25 17:41:55;;;;;;;5.55;3.40;;;;;;;9.81;96.30;100016.31;10460556;28;20041;-73
2024/03/25 17:46:56;;;;;;;7.30;4.15;;;;;;;9.70;91.47;100004.31;10461008;28;20072;-72
2024/03/25 17:51:57;;;;;;;11.70;5.05;;;;;;;9.61;96.61;100002.06;10461273;28;20437;-72
2024/03/25 17:56:57;;;;;;;9.77;5.20;;;;;;;9.55;99.05;100004.56;10460451;28;20041;-73
2024/03/25 18:01:57;;;;;;;10.23;4.72;;;;;;;9.40;95.60;99998.56;10459402;28;20104;-72
2024/03/25 18:06:58;;;;;;;4.97;4.38;;;;;;;9.32;98.24;99996.94;10458941;28;20052;-72
2024/03/25 18:11:59;;;;;;;5.75;4.93;;;;;;;9.20;100.00;99987.00;10458651;28;20464;-72
2024/03/25 18:16:59;;;;;;;6.40;5.80;;;;;;;9.07;100.00;99980.56;10458454;28;20082;-73
2024/03/25 18:22:00;;;;;;;13.70;5.90;;;;;;;8.94;100.00;99980.59;10460594;28;20115;-72
2024/03/25 18:27:00;;;;;;;10.45;4.80;;;;;;;8.79;100.00;99975.41;10460093;28;20395;-72
2024/03/25 18:32:00;;;;;;;8.57;5.10;;;;;;;8.83;100.00;99983.91;10457126;28;20104;-72
2024/03/25 18:37:01;;;;;;;17.38;6.30;;;;;;;8.70;100.00;99986.63;10459547;28;20031;-72
2024/03/25 18:42:01;;;;;;;9.75;5.15;;;;;;;8.58;100.00;99981.84;10458810;28;20120;-72
2024/03/25 18:47:03;;;;;;;5.97;5.40;;;;;;;8.57;100.00;99976.66;10458514;28;20473;-72
2024/03/25 18:52:04;;;;;;;6.30;4.38;;;;;;;8.44;100.00;99976.66;10456989;28;20048;-72
2024/03/25 18:57:04;;;;;;;11.52;5.00;;;;;;;8.40;100.00;99978.94;10458379;28;20037;-72
2024/03/25 19:02:05;;;;;;;12.95;5.53;;;;;;;8.38;100.00;99972.91;10458812;28;20361;-72
2024/03/25 19:07:06;;;;;;;3.72;3.38;;;;;;;8.27;100.00;99966.22;10457263;28;20121;-72
2024/03/25 19:12:07;;;;;;;13.20;5.38;;;;;;;8.26;100.00;99959.16;10458013;28;20127;-71
2024/03/25 19:17:07;;;;;;;9.43;4.72;;;;;;;8.21;100.00;99960.81;10472677;28;20029;-72
2024/03/25 19:22:07;;;;;;;5.57;4.28;;;;;;;8.12;100.00;99963.69;10457754;28;20072;-72
2024/03/25 19:27:08;;;;;;;8.98;5.05;;;;;;;8.10;100.00;99963.09;10457989;28;20053;-72
2024/03/25 19:32:08;;;;;;;8.68;5.38;;;;;;;8.12;100.00;99965.56;10457716;28;20056;-72
2024/03/25 19:37:09;;;;;;;8.70;4.63;;;;;;;8.07;99.32;99959.94;10455644;28;20437;-71
2024/03/25 19:42:09;;;;;;;7.10;4.80;;;;;;;8.00;98.09;99957.25;10455561;28;20043;-72
2024/03/25 19:47:09;;;;;;;8.18;4.05;;;;;;;7.99;99.36;99944.81;10454797;28;20041;-72
2024/03/25 19:52:10;;;;;;;7.35;5.63;;;;;;;7.95;100.00;99943.56;10454419;28;20029;-72
2024/03/25 19:57:10;;;;;;;16.45;5.35;;;;;;;7.98;100.00;99942.31;10454790;28;20461;-72
2024/03/25 20:02:12;;;;;;;3.90;3.58;;;;;;;7.93;100.00;99946.44;10455535;28;20083;-73
2024/03/25 20:07:12;;;;;;;4.88;4.47;;;;;;;7.92;100.00;99939.41;10439034;28;20061;-73
2024/03/25 20:12:13;;;;;;;15.90;5.20;;;;;;;7.89;100.00;99933.59;10453365;28;20079;-73
2024/03/25 20:17:13;;;;;;;15.80;6.32;;;;;;;7.91;100.00;99926.09;10455316;28;20024;-73
2024/03/25 20:22:13;;;;;;;10.77;5.63;;;;;;;7.86;100.00;99939.38;10454147;28;20071;-73
2024/03/25 20:27:14;;;;;;;9.02;5.55;;;;;;;7.92;100.00;99930.47;10453654;28;20120;-72
2024/03/25 20:32:14;;;;;;;9.00;5.38;;;;;;;7.91;100.00;99923.41;10454017;28;20322;-72
2024/03/25 20:37:16;;;;;;;13.00;6.15;;;;;;;7.95;100.00;99918.47;10453665;28;20450;-74
2024/03/25 20:42:16;;;;;;;6.22;5.63;;;;;;;7.89;100.00;99912.03;10454820;28;20049;-71
2024/03/25 20:47:17;;;;;;;12.88;5.35;;;;;;;7.79;100.00;99906.19;10453093;28;20438;-73
2024/03/25 20:52:17;;;;;;;4.93;3.63;;;;;;;7.75;100.00;99908.44;10455343;28;20064;-72
2024/03/25 20:57:19;;;;;;;9.70;5.68;;;;;;;7.73;100.00;99899.75;10459609;28;20025;-73
2024/03/25 21:02:19;;;;;;;16.98;5.00;;;;;;;7.61;100.00;99902.19;10461764;28;20033;-73
2024/03/25 21:07:20;;;;;;;10.65;5.47;;;;;;;7.50;100.00;99910.03;10444491;28;20053;-73
2024/03/25 21:12:20;;;;;;;12.30;6.85;;;;;;;7.41;100.00;99898.63;10463571;28;20044;-74
2024/03/25 21:17:21;;;;;;;9.20;5.88;;;;;;;7.35;100.00;99894.84;10463275;28;20407;-73
2024/03/25 21:22:21;;;;;;;16.05;6.10;;;;;;;7.33;100.00;99890.69;10462126;28;20415;-73
2024/03/25 21:27:22;;;;;;;9.57;6.78;;;;;;;7.27;100.00;99878.88;10463368;28;20128;-73
2024/03/25 21:32:23;;;;;;;7.40;5.53;;;;;;;7.22;100.00;99876.78;10462471;28;20068;-73
2024/03/25 21:37:23;;;;;;;6.10;4.88;;;;;;;7.20;100.00;99862.69;10443888;28;20029;-73
2024/03/25 21:42:24;;;;;;;8.00;6.65;;;;;;;7.25;100.00;99861.28;10460980;28;20368;-73
2024/03/25 21:47:24;;;;;;;5.22;4.75;;;;;;;7.24;100.00;99844.25;10460062;28;20098;-73
2024/03/25 21:52:25;;;;;;;9.60;5.70;;;;;;;7.20;100.00;99838.44;10460904;28;20037;-73
2024/03/25 21:57:25;;;;;;;12.35;5.22;;;;;;;7.30;100.00;99850.72;10442814;28;20065;-72
2024/03/25 22:02:26;;;;;;;7.00;5.25;;;;;;;7.26;100.00;99839.50;10459114;28;20423;-73
2024/03/25 22:07:26;;;;;;;8.60;4.55;;;;;;;7.34;100.00;99838.50;10458709;28;20072;-73
2024/03/25 22:12:26;;;;;;;8.93;4.22;;;;;;;7.30;100.00;99830.00;10458566;28;20411;-72
2024/03/25 22:17:27;;;;;;;8.85;4.72;;;;;;;7.29;100.00;99835.59;10460101;28;20112;-72
2024/03/25 22:22:28;;;;;;;6.70;4.53;;;;;;;7.23;100.00;99840.75;10459287;28;20064;-72
2024/03/25 22:27:29;;;;;;;10.75;4.90;;;;;;;7.15;100.00;99824.78;10441601;28;20368;-72
2024/03/25 22:32:29;;;;;;;7.53;5.15;;;;;;;7.13;100.00;99818.75;10458616;28;20029;-72
2024/03/25 22:37:30;;;;;;;5.13;4.72;;;;;;;7.07;100.00;99808.78;10459238;28;20472;-72
2024/03/25 22:42:30;;;;;;;5.45;3.88;;;;;;;6.96;100.00;99798.63;10440428;28;20024;-72
2024/03/25 22:47:30;;;;;;;15.15;5.85;;;;;;;6.90;100.00;99783.28;10458241;28;20078;-72
2024/03/25 22:52:31;;;;;;;10.40;5.18;;;;;;;6.84;100.00;99767.94;10458894;28;20052;-72
2024/03/25 22:57:31;;;;;;;11.82;5.47;;;;;;;6.82;100.00;99769.97;10456396;28;20033;-72
2024/03/25 23:02:32;;;;;;;6.55;3.78;;;;;;;6.78;100.00;99760.66;10457066;28;20033;-72
2024/03/25 23:07:32;;;;;;;6.88;5.22;;;;;;;6.72;100.00;99759.59;10473541;28;20075;-72
2024/03/25 23:12:33;;;;;;;7.55;4.60;;;;;;;6.79;100.00;99762.31;10456956;28;20091;-72